createdAt,value
2018-02-27T00:00:13.463Z,69.41
2018-02-27T00:02:41.774Z,69.44
2018-02-27T00:05:10.095Z,69.77
2018-02-27T00:07:38.408Z,70.02
2018-02-27T00:10:06.755Z,70.10
2018-02-27T00:12:35.084Z,69.93
2018-02-27T00:15:04.194Z,69.92
2018-02-27T00:17:32.519Z,69.82
2018-02-27T00:20:00.938Z,69.74
2018-02-27T00:22:30.050Z,69.38
2018-02-27T00:24:58.379Z,69.15
2018-02-27T00:27:26.731Z,68.84
2018-02-27T00:29:55.056Z,68.48
2018-02-27T00:32:24.144Z,68.30
2018-02-27T00:34:52.450Z,68.66
2018-02-27T00:37:20.803Z,68.48
2018-02-27T00:39:49.910Z,68.42
2018-02-27T00:42:19.007Z,68.24
2018-02-27T00:44:48.071Z,67.97
2018-02-27T00:47:16.391Z,68.27
2018-02-27T00:49:44.787Z,68.34
2018-02-27T00:52:13.123Z,68.16
2018-02-27T00:54:41.447Z,67.69
2018-02-27T00:57:09.800Z,68.01
2018-02-27T00:59:38.116Z,66.99
2018-02-27T01:02:06.458Z,66.46
2018-02-27T01:04:34.798Z,66.18
2018-02-27T01:07:03.102Z,66.09
2018-02-27T01:09:31.427Z,66.04
2018-02-27T01:11:59.779Z,66.22
2018-02-27T01:14:28.121Z,65.91
2018-02-27T01:16:56.544Z,66.35
2018-02-27T01:19:24.927Z,65.99
2018-02-27T01:21:53.247Z,65.48
2018-02-27T01:24:21.614Z,65.76
2018-02-27T01:26:49.931Z,65.57
2018-02-27T01:29:18.270Z,65.19
2018-02-27T01:31:46.592Z,65.22
2018-02-27T01:34:14.922Z,65.15
2018-02-27T01:36:43.255Z,65.40
2018-02-27T01:39:11.665Z,65.31
2018-02-27T01:41:40.003Z,65.28
2018-02-27T01:44:08.420Z,64.83
2018-02-27T01:46:36.763Z,64.87
2018-02-27T01:49:05.102Z,65.11
2018-02-27T01:51:34.195Z,65.41
2018-02-27T01:54:03.287Z,65.79
2018-02-27T01:56:31.624Z,66.14
2018-02-27T01:58:59.958Z,66.42
2018-02-27T02:01:29.074Z,66.99
2018-02-27T02:03:57.407Z,67.06
2018-02-27T02:06:25.742Z,67.20
2018-02-27T02:08:54.131Z,67.42
2018-02-27T02:11:22.455Z,67.65
2018-02-27T02:13:51.579Z,67.20
2018-02-27T02:16:19.927Z,67.33
2018-02-27T02:18:48.260Z,67.16
2018-02-27T02:21:16.596Z,67.37
2018-02-27T02:23:45.704Z,67.56
2018-02-27T02:26:14.022Z,67.57
2018-02-27T02:28:42.351Z,67.89
2018-02-27T02:31:10.691Z,67.65
2018-02-27T02:33:39.047Z,67.46
2018-02-27T02:36:07.406Z,67.49
2018-02-27T02:38:35.779Z,66.98
2018-02-27T02:41:04.100Z,67.19
2018-02-27T02:43:32.426Z,67.48
2018-02-27T02:46:00.735Z,67.83
2018-02-27T02:48:35.420Z,67.65
2018-02-27T02:51:03.794Z,67.65
2018-02-27T02:53:32.091Z,67.89
2018-02-27T02:56:00.416Z,68.15
2018-02-27T02:58:28.775Z,67.56
2018-02-27T03:00:57.104Z,67.37
2018-02-27T03:03:25.435Z,67.47
2018-02-27T03:05:53.864Z,67.47
2018-02-27T03:08:22.190Z,67.45
2018-02-27T03:10:50.550Z,67.25
2018-02-27T03:13:18.885Z,67.56
2018-02-27T03:15:47.297Z,67.63
2018-02-27T03:18:15.659Z,67.72
2018-02-27T03:20:43.982Z,67.76
2018-02-27T03:23:12.303Z,67.78
2018-02-27T03:25:40.634Z,67.85
2018-02-27T03:28:08.983Z,67.94
2018-02-27T03:30:37.332Z,68.30
2018-02-27T03:33:06.460Z,67.71
2018-02-27T03:35:34.799Z,67.36
2018-02-27T03:38:03.933Z,67.45
2018-02-27T03:40:32.301Z,66.95
2018-02-27T03:43:00.650Z,66.22
2018-02-27T03:45:29.738Z,65.67
2018-02-27T03:47:58.077Z,65.91
2018-02-27T03:50:26.424Z,65.69
2018-02-27T03:52:54.755Z,65.96
2018-02-27T03:55:23.098Z,65.97
2018-02-27T03:57:51.423Z,66.23
2018-02-27T04:00:19.769Z,65.96
2018-02-27T04:02:48.094Z,65.63
2018-02-27T04:05:16.428Z,65.70
2018-02-27T04:07:44.778Z,65.77
2018-02-27T04:10:13.208Z,65.73
2018-02-27T04:12:41.589Z,66.38
2018-02-27T04:15:10.686Z,66.50
2018-02-27T04:17:39.783Z,66.76
2018-02-27T04:20:08.899Z,67.59
2018-02-27T04:22:37.239Z,68.02
2018-02-27T04:25:05.649Z,68.14
2018-02-27T04:27:34.745Z,68.06
2018-02-27T04:30:03.071Z,67.47
2018-02-27T04:32:31.446Z,66.32
2018-02-27T04:34:59.785Z,65.78
2018-02-27T04:37:28.127Z,65.55
2018-02-27T04:39:56.463Z,65.24
2018-02-27T04:42:24.798Z,64.22
2018-02-27T04:44:53.881Z,64.20
2018-02-27T04:47:22.227Z,64.84
2018-02-27T04:49:50.580Z,64.44
2018-02-27T04:52:19.047Z,64.14
2018-02-27T04:54:47.387Z,64.00
2018-02-27T04:57:15.735Z,63.31
2018-02-27T04:59:44.076Z,62.63
2018-02-27T05:02:12.514Z,62.13
2018-02-27T05:04:40.867Z,62.36
2018-02-27T05:07:09.207Z,62.22
2018-02-27T05:09:38.398Z,62.51
2018-02-27T05:12:06.713Z,62.24
2018-02-27T05:14:35.075Z,62.38
2018-02-27T05:17:03.499Z,62.86
2018-02-27T05:19:31.843Z,63.07
2018-02-27T05:22:00.203Z,63.31
2018-02-27T05:24:28.555Z,62.91
2018-02-27T05:26:57.698Z,63.13
2018-02-27T05:29:26.099Z,63.17
2018-02-27T05:31:54.498Z,63.64
2018-02-27T05:34:22.838Z,63.22
2018-02-27T05:36:51.193Z,63.40
2018-02-27T05:39:19.527Z,63.11
2018-02-27T05:41:47.896Z,63.26
2018-02-27T05:44:16.230Z,63.06
2018-02-27T05:46:44.570Z,63.14
2018-02-27T05:49:12.954Z,63.48
2018-02-27T05:51:42.036Z,63.25
2018-02-27T05:54:10.421Z,63.59
2018-02-27T05:56:38.783Z,63.71
2018-02-27T05:59:07.118Z,63.63
2018-02-27T06:01:35.501Z,63.22
2018-02-27T06:04:03.848Z,63.48
2018-02-27T06:06:32.168Z,63.77
2018-02-27T06:09:00.543Z,64.06
2018-02-27T06:11:29.662Z,64.02
2018-02-27T06:13:58.015Z,64.13
2018-02-27T06:16:26.386Z,64.28
2018-02-27T06:18:54.696Z,64.42
2018-02-27T06:21:23.051Z,64.18
2018-02-27T06:23:51.375Z,64.20
2018-02-27T06:26:20.486Z,64.21
2018-02-27T06:28:49.611Z,64.15
2018-02-27T06:31:17.998Z,64.28
2018-02-27T06:33:46.376Z,64.27
2018-02-27T06:36:14.770Z,64.56
2018-02-27T06:38:43.086Z,63.94
2018-02-27T06:41:11.423Z,63.77
2018-02-27T06:43:39.739Z,63.64
2018-02-27T06:46:08.833Z,63.84
2018-02-27T06:48:37.862Z,63.91
2018-02-27T06:51:06.621Z,64.03
2018-02-27T06:53:35.761Z,64.00
2018-02-27T06:56:04.887Z,63.99
2018-02-27T06:58:33.233Z,64.09
2018-02-27T07:01:02.333Z,64.11
2018-02-27T07:03:31.447Z,64.35
2018-02-27T07:05:59.849Z,63.91
2018-02-27T07:08:28.195Z,63.47
2018-02-27T07:10:56.558Z,63.94
2018-02-27T07:13:24.913Z,63.54
2018-02-27T07:15:53.284Z,63.55
2018-02-27T07:18:21.612Z,63.41
2018-02-27T07:20:49.959Z,63.30
2018-02-27T07:23:18.312Z,62.87
2018-02-27T07:25:46.643Z,62.94
2018-02-27T07:28:14.979Z,62.89
2018-02-27T07:30:43.313Z,62.84
2018-02-27T07:33:11.661Z,62.79
2018-02-27T07:35:40.053Z,62.63
2018-02-27T07:38:08.403Z,62.66
2018-02-27T07:40:36.734Z,62.54
2018-02-27T07:43:05.848Z,62.62
2018-02-27T07:45:34.188Z,62.28
2018-02-27T07:48:02.532Z,62.56
2018-02-27T07:50:30.871Z,62.54
2018-02-27T07:52:59.998Z,62.29
2018-02-27T07:55:28.342Z,62.16
2018-02-27T07:57:56.711Z,61.95
2018-02-27T08:00:25.815Z,61.71
2018-02-27T08:02:54.983Z,61.26
2018-02-27T08:05:23.332Z,61.27
2018-02-27T08:07:51.671Z,61.82
2018-02-27T08:10:20.799Z,61.81
2018-02-27T08:12:49.147Z,61.34
2018-02-27T08:15:18.345Z,61.26
2018-02-27T08:17:46.685Z,60.71
2018-02-27T08:20:15.042Z,60.46
2018-02-27T08:22:43.353Z,60.16
2018-02-27T08:25:11.682Z,60.22
2018-02-27T08:27:40.032Z,60.08
2018-02-27T08:30:08.379Z,59.54
2018-02-27T08:32:36.797Z,59.96
2018-02-27T08:35:05.151Z,59.17
2018-02-27T08:37:34.275Z,59.27
2018-02-27T08:40:02.696Z,59.10
2018-02-27T08:42:31.031Z,59.33
2018-02-27T08:44:59.400Z,58.82
2018-02-27T08:47:27.866Z,57.81
2018-02-27T08:49:56.275Z,57.91
2018-02-27T08:52:24.755Z,57.64
2018-02-27T08:54:53.079Z,57.87
2018-02-27T08:57:21.427Z,56.82
2018-02-27T08:59:49.766Z,56.92
2018-02-27T09:02:18.144Z,56.82
2018-02-27T09:04:47.259Z,56.68
2018-02-27T09:07:15.656Z,56.52
2018-02-27T09:09:44.087Z,56.48
2018-02-27T09:12:12.443Z,56.00
2018-02-27T09:14:40.818Z,55.52
2018-02-27T09:17:09.113Z,55.25
2018-02-27T09:19:37.451Z,55.79
2018-02-27T09:22:05.765Z,55.70
2018-02-27T09:24:34.130Z,54.99
2018-02-27T09:27:02.475Z,54.68
2018-02-27T09:29:30.812Z,53.47
2018-02-27T09:31:59.922Z,53.32
2018-02-27T09:34:28.287Z,52.74
2018-02-27T09:36:57.451Z,52.41
2018-02-27T09:39:25.773Z,52.70
2018-02-27T09:41:54.099Z,53.27
2018-02-27T09:44:22.455Z,52.39
2018-02-27T09:46:50.787Z,51.57
2018-02-27T09:49:19.956Z,51.25
2018-02-27T09:51:48.300Z,51.44
2018-02-27T09:54:16.629Z,50.71
2018-02-27T09:56:45.753Z,50.50
2018-02-27T09:59:14.110Z,50.24
2018-02-27T10:01:43.233Z,50.19
2018-02-27T10:04:11.671Z,49.66
2018-02-27T10:06:40.032Z,50.18
2018-02-27T10:09:08.355Z,50.13
2018-02-27T10:11:36.682Z,50.05
2018-02-27T10:14:05.021Z,49.17
2018-02-27T10:16:33.354Z,48.89
2018-02-27T10:19:01.714Z,48.01
2018-02-27T10:21:30.055Z,47.31
2018-02-27T10:23:58.484Z,47.68
2018-02-27T10:26:26.823Z,47.28
2018-02-27T10:28:55.155Z,46.63
2018-02-27T10:31:23.532Z,46.60
2018-02-27T10:33:51.836Z,46.55
2018-02-27T10:36:20.164Z,46.80
2018-02-27T10:38:48.487Z,46.31
2018-02-27T10:41:16.920Z,45.64
2018-02-27T10:43:45.251Z,45.19
2018-02-27T10:46:13.601Z,45.79
2018-02-27T10:48:42.697Z,44.84
2018-02-27T10:51:11.813Z,44.14
2018-02-27T10:53:40.227Z,44.65
2018-02-27T10:56:08.579Z,44.38
2018-02-27T10:58:36.941Z,44.42
2018-02-27T11:01:11.727Z,44.58
2018-02-27T11:03:40.079Z,44.29
2018-02-27T11:06:08.433Z,43.75
2018-02-27T11:08:36.824Z,41.99
2018-02-27T11:11:05.184Z,41.33
2018-02-27T11:13:33.519Z,40.26
2018-02-27T11:16:01.855Z,37.97
2018-02-27T11:18:30.195Z,37.17
2018-02-27T11:20:59.322Z,37.75
2018-02-27T11:23:27.654Z,37.21
2018-02-27T11:25:56.011Z,36.41
2018-02-27T11:28:24.343Z,35.67
2018-02-27T11:30:52.667Z,37.01
2018-02-27T11:33:21.034Z,37.84
2018-02-27T11:35:49.392Z,36.17
2018-02-27T11:38:17.711Z,37.15
2018-02-27T11:40:46.045Z,37.22
2018-02-27T11:43:14.363Z,37.34
2018-02-27T11:45:42.986Z,38.07
2018-02-27T11:48:11.308Z,37.36
2018-02-27T11:50:39.662Z,37.69
2018-02-27T11:53:08.107Z,34.95
2018-02-27T11:55:36.451Z,35.92
2018-02-27T11:58:05.562Z,36.10
2018-02-27T12:00:33.904Z,34.48
2018-02-27T12:03:02.251Z,34.30
2018-02-27T12:05:30.583Z,35.76
2018-02-27T12:07:58.911Z,34.25
2018-02-27T12:10:27.248Z,33.84
2018-02-27T12:12:55.580Z,33.99
2018-02-27T12:15:23.963Z,32.96
2018-02-27T12:17:53.093Z,33.01
2018-02-27T12:20:21.451Z,32.73
2018-02-27T12:22:50.566Z,34.80
2018-02-27T12:25:18.905Z,33.90
2018-02-27T12:27:47.263Z,33.81
2018-02-27T12:30:15.653Z,34.06
2018-02-27T12:32:43.967Z,32.05
2018-02-27T12:35:12.303Z,33.77
2018-02-27T12:37:40.627Z,33.63
2018-02-27T12:40:08.955Z,32.34
2018-02-27T12:42:37.279Z,32.02
2018-02-27T12:45:05.611Z,33.15
2018-02-27T12:47:33.959Z,32.59
2018-02-27T12:50:02.316Z,31.66
2018-02-27T12:52:30.702Z,34.37
2018-02-27T12:54:59.043Z,33.20
2018-02-27T12:57:27.351Z,34.23
2018-02-27T12:59:55.642Z,33.34
2018-02-27T13:02:24.006Z,32.81
2018-02-27T13:04:52.388Z,31.58
2018-02-27T13:07:20.708Z,32.41
2018-02-27T13:09:49.018Z,31.61
2018-02-27T13:12:17.370Z,31.48
2018-02-27T13:14:45.707Z,31.72
2018-02-27T13:17:14.034Z,30.53
2018-02-27T13:19:42.355Z,30.42
2018-02-27T13:22:10.683Z,30.21
2018-02-27T13:24:38.989Z,29.41
2018-02-27T13:27:07.343Z,29.87
2018-02-27T13:29:35.693Z,29.12
2018-02-27T13:32:04.075Z,30.54
2018-02-27T13:34:32.414Z,29.07
2018-02-27T13:37:00.756Z,29.71
2018-02-27T13:39:29.108Z,30.08
2018-02-27T13:41:57.432Z,28.87
2018-02-27T13:44:25.757Z,28.78
2018-02-27T13:46:54.836Z,27.61
2018-02-27T13:49:25.040Z,28.99
2018-02-27T13:51:53.051Z,27.92
2018-02-27T13:54:21.435Z,29.91
2018-02-27T13:56:49.758Z,29.17
2018-02-27T13:59:18.109Z,29.82
2018-02-27T14:01:46.466Z,28.50
2018-02-27T14:04:14.804Z,28.51
2018-02-27T14:06:43.119Z,27.74
2018-02-27T14:09:11.475Z,29.65
2018-02-27T14:11:39.811Z,30.25
2018-02-27T14:14:08.150Z,29.77
2018-02-27T14:16:36.504Z,29.81
2018-02-27T14:19:05.612Z,29.49
2018-02-27T14:21:33.951Z,29.80
2018-02-27T14:24:02.297Z,30.83
2018-02-27T14:26:30.685Z,30.29
2018-02-27T14:28:59.713Z,29.31
2018-02-27T14:31:28.049Z,29.30
2018-02-27T14:33:56.387Z,30.42
2018-02-27T14:36:24.740Z,31.57
2018-02-27T14:38:53.131Z,31.13
2018-02-27T14:41:21.464Z,29.96
2018-02-27T14:43:49.771Z,30.53
2018-02-27T14:46:18.113Z,30.00
2018-02-27T14:48:46.427Z,29.72
2018-02-27T14:51:14.766Z,31.68
2018-02-27T14:53:43.111Z,30.01
2018-02-27T14:56:12.237Z,29.96
2018-02-27T14:58:40.570Z,28.62
2018-02-27T15:01:08.915Z,28.42
2018-02-27T15:03:37.245Z,28.93
2018-02-27T15:06:05.590Z,28.92
2018-02-27T15:08:33.943Z,28.62
2018-02-27T15:11:02.268Z,30.08
2018-02-27T15:13:31.369Z,31.15
2018-02-27T15:15:59.802Z,30.18
2018-02-27T15:18:28.162Z,29.71
2018-02-27T15:20:56.503Z,30.51
2018-02-27T15:23:24.823Z,30.72
2018-02-27T15:25:53.160Z,30.90
2018-02-27T15:28:21.491Z,30.49
2018-02-27T15:30:49.842Z,30.72
2018-02-27T15:33:18.207Z,30.91
2018-02-27T15:35:46.550Z,29.99
2018-02-27T15:38:15.643Z,30.88
2018-02-27T15:40:44.749Z,30.58
2018-02-27T15:43:13.870Z,31.44
2018-02-27T15:45:42.207Z,31.92
2018-02-27T15:48:10.548Z,31.72
2018-02-27T15:50:38.868Z,32.51
2018-02-27T15:53:07.966Z,31.96
2018-02-27T15:55:37.081Z,32.43
2018-02-27T15:58:05.418Z,33.18
2018-02-27T16:00:33.743Z,34.25
2018-02-27T16:03:02.076Z,34.18
2018-02-27T16:05:30.422Z,34.23
2018-02-27T16:07:58.785Z,35.12
2018-02-27T16:10:27.138Z,35.67
2018-02-27T16:12:55.471Z,36.48
2018-02-27T16:15:23.815Z,36.17
2018-02-27T16:17:52.154Z,35.78
2018-02-27T16:20:20.496Z,35.99
2018-02-27T16:22:48.814Z,35.84
2018-02-27T16:25:17.903Z,35.79
2018-02-27T16:27:46.239Z,36.46
2018-02-27T16:30:14.571Z,36.74
2018-02-27T16:32:43.689Z,36.54
2018-02-27T16:35:12.031Z,37.09
2018-02-27T16:37:41.126Z,36.80
2018-02-27T16:40:09.430Z,37.20
2018-02-27T16:42:37.756Z,37.45
2018-02-27T16:45:06.092Z,37.88
2018-02-27T16:47:34.442Z,38.26
2018-02-27T16:50:03.530Z,38.43
2018-02-27T16:52:31.855Z,38.94
2018-02-27T16:55:00.195Z,39.13
2018-02-27T16:57:28.565Z,38.92
2018-02-27T16:59:57.681Z,39.30
2018-02-27T17:02:26.019Z,39.78
2018-02-27T17:04:54.351Z,39.79
2018-02-27T17:07:22.616Z,39.98
2018-02-27T17:09:50.891Z,39.86
2018-02-27T17:12:19.227Z,40.28
2018-02-27T17:14:47.442Z,40.32
2018-02-27T17:17:15.745Z,40.65
2018-02-27T17:19:44.023Z,40.79
2018-02-27T17:22:12.287Z,41.23
2018-02-27T17:24:40.551Z,41.57
2018-02-27T17:27:08.806Z,41.88
2018-02-27T17:29:37.834Z,42.02
2018-02-27T17:32:06.077Z,42.32
2018-02-27T17:34:35.108Z,43.03
2018-02-27T17:37:03.360Z,42.99
2018-02-27T17:39:31.625Z,43.10
2018-02-27T17:42:00.653Z,43.57
2018-02-27T17:44:28.934Z,43.50
2018-02-27T17:46:57.206Z,43.52
2018-02-27T17:49:25.461Z,43.57
2018-02-27T17:51:53.718Z,43.80
2018-02-27T17:54:22.740Z,43.69
2018-02-27T17:56:53.003Z,44.13
2018-02-27T17:59:21.252Z,44.13
2018-02-27T18:01:51.620Z,44.26
2018-02-27T18:04:20.703Z,44.63
2018-02-27T18:06:48.922Z,44.94
2018-02-27T18:09:17.171Z,44.99
2018-02-27T18:11:46.200Z,45.26
2018-02-27T18:14:14.454Z,45.28
2018-02-27T18:16:42.716Z,45.55
2018-02-27T18:19:11.739Z,45.42
2018-02-27T18:21:41.993Z,45.50
2018-02-27T18:24:11.052Z,45.96
2018-02-27T18:26:39.341Z,46.00
2018-02-27T18:29:08.077Z,45.92
2018-02-27T18:31:38.403Z,46.19
2018-02-27T18:34:06.711Z,46.33
2018-02-27T18:36:35.371Z,46.33
2018-02-27T18:39:03.619Z,46.82
2018-02-27T18:41:33.059Z,46.51
2018-02-27T18:44:29.116Z,46.74
2018-02-27T18:47:00.492Z,47.13
2018-02-27T18:49:28.798Z,47.58
2018-02-27T18:51:57.878Z,47.67
2018-02-27T18:54:26.142Z,47.93
2018-02-27T18:56:54.419Z,48.18
2018-02-27T18:59:22.679Z,48.45
2018-02-27T19:01:50.935Z,48.71
2018-02-27T19:04:19.196Z,48.62
2018-02-27T19:06:47.451Z,48.90
2018-02-27T19:09:16.488Z,49.00
2018-02-27T19:11:44.749Z,49.05
2018-02-27T19:14:13.007Z,48.86
2018-02-27T19:16:42.031Z,48.99
2018-02-27T19:19:10.296Z,49.01
2018-02-27T19:21:38.563Z,49.14
2018-02-27T19:24:06.818Z,49.39
2018-02-27T19:26:35.844Z,49.53
2018-02-27T19:29:04.114Z,49.30
2018-02-27T19:31:32.378Z,49.28
2018-02-27T19:34:01.405Z,49.32
2018-02-27T19:36:29.703Z,49.20
2018-02-27T19:38:57.975Z,49.37
2018-02-27T19:41:26.237Z,50.07
2018-02-27T19:43:54.497Z,49.73
2018-02-27T19:46:22.822Z,49.52
2018-02-27T19:48:51.083Z,49.29
2018-02-27T19:51:19.332Z,49.38
2018-02-27T19:53:47.605Z,49.42
2018-02-27T19:56:15.933Z,49.43
2018-02-27T19:58:44.969Z,49.58
2018-02-27T20:01:13.234Z,49.55
2018-02-27T20:03:41.488Z,49.52
2018-02-27T20:06:10.614Z,49.75
2018-02-27T20:08:38.878Z,49.67
2018-02-27T20:11:07.376Z,49.83
2018-02-27T20:13:35.855Z,50.04
2018-02-27T20:16:04.140Z,50.15
2018-02-27T20:18:32.402Z,50.13
2018-02-27T20:21:00.665Z,50.28
2018-02-27T20:23:34.606Z,50.40
2018-02-27T20:26:02.884Z,49.94
2018-02-27T20:31:35.933Z,50.40
2018-02-27T20:34:04.193Z,50.62
2018-02-27T20:36:33.212Z,50.42
2018-02-27T20:39:07.726Z,50.54
2018-02-27T20:41:36.733Z,50.74
2018-02-27T20:44:04.991Z,50.69
2018-02-27T20:46:34.031Z,50.65
2018-02-27T20:49:02.301Z,50.69
2018-02-27T20:51:30.544Z,50.76
2018-02-27T20:53:59.573Z,50.84
2018-02-27T20:56:27.882Z,50.71
2018-02-27T20:58:56.149Z,50.95
2018-02-27T21:01:24.410Z,51.29
2018-02-27T21:03:52.674Z,51.67
2018-02-27T21:06:20.932Z,51.47
2018-02-27T21:08:49.190Z,51.69
2018-02-27T21:11:18.211Z,51.96
2018-02-27T21:13:46.476Z,52.13
2018-02-27T21:16:14.731Z,52.22
2018-02-27T21:18:43.764Z,52.45
2018-02-27T21:21:12.038Z,52.55
2018-02-27T21:23:40.302Z,52.51
2018-02-27T21:26:08.580Z,52.78
2018-02-27T21:28:36.863Z,52.89
2018-02-27T21:31:05.859Z,52.98
2018-02-27T21:33:34.124Z,52.98
2018-02-27T21:36:02.392Z,53.33
2018-02-27T21:38:30.646Z,53.40
2018-02-27T21:40:59.703Z,53.22
2018-02-27T21:43:27.978Z,53.47
2018-02-27T21:45:56.248Z,53.84
2018-02-27T21:48:24.499Z,53.44
2018-02-27T21:50:52.767Z,53.70
2018-02-27T21:53:21.028Z,53.45
2018-02-27T21:55:50.050Z,53.79
2018-02-27T21:58:18.311Z,54.05
2018-02-27T22:00:46.575Z,54.05
2018-02-27T22:03:15.603Z,54.28
2018-02-27T22:05:43.867Z,54.53
2018-02-27T22:08:12.121Z,54.51
2018-02-27T22:10:41.160Z,54.81
2018-02-27T22:13:09.416Z,55.09
2018-02-27T22:15:37.795Z,55.10
2018-02-27T22:18:06.051Z,55.31
2018-02-27T22:20:34.314Z,55.63
2018-02-27T22:23:03.356Z,55.81
2018-02-27T22:25:31.612Z,55.84
2018-02-27T22:27:59.866Z,55.84
2018-02-27T22:30:28.904Z,56.04
2018-02-27T22:32:57.155Z,55.97
2018-02-27T22:35:25.430Z,56.21
2018-02-27T22:37:53.683Z,56.25
2018-02-27T22:40:22.723Z,56.22
2018-02-27T22:42:50.975Z,56.37
2018-02-27T22:45:19.229Z,56.64
2018-02-27T22:47:48.259Z,56.39
2018-02-27T22:50:16.518Z,56.21
2018-02-27T22:52:44.782Z,56.53
2018-02-27T22:55:13.111Z,56.59
2018-02-27T22:57:42.172Z,56.92
2018-02-27T23:00:10.426Z,56.50
2018-02-27T23:02:39.543Z,56.75
2018-02-27T23:05:07.887Z,56.68
2018-02-27T23:07:36.997Z,56.76
2018-02-27T23:10:06.042Z,56.85
2018-02-27T23:12:34.349Z,56.76
2018-02-27T23:15:03.429Z,57.23
2018-02-27T23:17:32.553Z,57.29
2018-02-27T23:20:01.720Z,57.24
2018-02-27T23:22:30.163Z,57.38
2018-02-27T23:25:03.143Z,57.56
2018-02-27T23:27:31.548Z,57.58
2018-02-27T23:29:59.905Z,57.90
2018-02-27T23:32:28.258Z,57.89
2018-02-27T23:34:57.428Z,57.92
2018-02-27T23:37:25.738Z,58.15
2018-02-27T23:39:54.033Z,58.25
2018-02-27T23:42:22.319Z,58.30
2018-02-27T23:44:50.616Z,58.18
2018-02-27T23:47:18.933Z,58.35
2018-02-27T23:49:47.237Z,58.46
2018-02-27T23:52:15.531Z,58.81
2018-02-27T23:54:43.832Z,58.97
2018-02-27T23:57:12.132Z,59.09
2018-02-27T23:59:41.170Z,59.07
